sensor_id;sensor_type;location;lat;lon;timestamp;P1;durP1;ratioP1;P2;durP2;ratioP2
75645;SDS011;64237;52.438;13.240;2023-06-04T00:00:02;4.20;;;1.50;;
75645;SDS011;64237;52.438;13.240;2023-06-04T00:02:28;5.15;;;1.80;;
75645;SDS011;64237;52.438;13.240;2023-06-04T00:04:53;4.20;;;1.88;;
75645;SDS011;64237;52.438;13.240;2023-06-04T00:07:19;4.70;;;1.60;;
75645;SDS011;64237;52.438;13.240;2023-06-04T00:09:44;4.72;;;1.75;;
75645;SDS011;64237;52.438;13.240;2023-06-04T00:12:11;4.43;;;1.73;;
75645;SDS011;64237;52.438;13.240;2023-06-04T00:14:37;6.07;;;1.90;;
75645;SDS011;64237;52.438;13.240;2023-06-04T00:17:02;4.10;;;1.60;;
75645;SDS011;64237;52.438;13.240;2023-06-04T00:19:28;4.63;;;2.10;;
75645;SDS011;64237;52.438;13.240;2023-06-04T00:21:53;5.22;;;1.75;;
75645;SDS011;64237;52.438;13.240;2023-06-04T00:24:19;4.93;;;1.80;;
75645;SDS011;64237;52.438;13.240;2023-06-04T00:26:44;5.53;;;2.10;;
75645;SDS011;64237;52.438;13.240;2023-06-04T00:29:10;5.25;;;1.80;;
75645;SDS011;64237;52.438;13.240;2023-06-04T00:31:35;4.70;;;1.75;;
75645;SDS011;64237;52.438;13.240;2023-06-04T00:34:03;5.68;;;1.70;;
75645;SDS011;64237;52.438;13.240;2023-06-04T00:36:29;5.03;;;1.85;;
75645;SDS011;64237;52.438;13.240;2023-06-04T00:38:54;5.72;;;1.88;;
75645;SDS011;64237;52.438;13.240;2023-06-04T00:41:20;5.40;;;1.83;;
75645;SDS011;64237;52.438;13.240;2023-06-04T00:43:45;4.75;;;1.88;;
75645;SDS011;64237;52.438;13.240;2023-06-04T00:46:20;4.15;;;1.83;;
75645;SDS011;64237;52.438;13.240;2023-06-04T00:48:46;6.03;;;2.00;;
75645;SDS011;64237;52.438;13.240;2023-06-04T00:51:11;5.35;;;1.90;;
75645;SDS011;64237;52.438;13.240;2023-06-04T00:53:37;5.43;;;2.00;;
75645;SDS011;64237;52.438;13.240;2023-06-04T00:56:03;6.30;;;2.17;;
75645;SDS011;64237;52.438;13.240;2023-06-04T00:58:30;5.13;;;1.88;;
75645;SDS011;64237;52.438;13.240;2023-06-04T01:00:56;5.18;;;1.63;;
75645;SDS011;64237;52.438;13.240;2023-06-04T01:03:22;4.97;;;2.00;;
75645;SDS011;64237;52.438;13.240;2023-06-04T01:05:57;4.63;;;1.73;;
75645;SDS011;64237;52.438;13.240;2023-06-04T01:08:29;6.00;;;1.80;;
75645;SDS011;64237;52.438;13.240;2023-06-04T01:10:56;3.95;;;1.60;;
75645;SDS011;64237;52.438;13.240;2023-06-04T01:13:23;4.78;;;1.80;;
75645;SDS011;64237;52.438;13.240;2023-06-04T01:15:49;3.60;;;1.52;;
75645;SDS011;64237;52.438;13.240;2023-06-04T01:18:15;6.50;;;1.38;;
75645;SDS011;64237;52.438;13.240;2023-06-04T01:20:53;2.75;;;1.45;;
75645;SDS011;64237;52.438;13.240;2023-06-04T01:26:08;3.40;;;1.23;;
75645;SDS011;64237;52.438;13.240;2023-06-04T01:28:35;4.20;;;1.52;;
75645;SDS011;64237;52.438;13.240;2023-06-04T01:31:02;5.07;;;1.50;;
75645;SDS011;64237;52.438;13.240;2023-06-04T01:33:28;3.45;;;1.42;;
75645;SDS011;64237;52.438;13.240;2023-06-04T01:35:54;4.72;;;1.42;;
75645;SDS011;64237;52.438;13.240;2023-06-04T01:38:19;4.10;;;1.45;;
75645;SDS011;64237;52.438;13.240;2023-06-04T01:40:45;4.45;;;1.50;;
75645;SDS011;64237;52.438;13.240;2023-06-04T01:43:12;4.25;;;1.58;;
75645;SDS011;64237;52.438;13.240;2023-06-04T01:45:37;4.10;;;1.25;;
75645;SDS011;64237;52.438;13.240;2023-06-04T01:48:03;3.30;;;1.30;;
75645;SDS011;64237;52.438;13.240;2023-06-04T01:50:30;3.85;;;1.30;;
75645;SDS011;64237;52.438;13.240;2023-06-04T01:52:56;3.58;;;1.30;;
75645;SDS011;64237;52.438;13.240;2023-06-04T01:55:21;3.45;;;1.35;;
75645;SDS011;64237;52.438;13.240;2023-06-04T01:57:47;3.50;;;1.33;;
75645;SDS011;64237;52.438;13.240;2023-06-04T02:00:13;3.63;;;1.70;;
75645;SDS011;64237;52.438;13.240;2023-06-04T02:02:39;3.17;;;1.35;;
75645;SDS011;64237;52.438;13.240;2023-06-04T02:05:06;5.88;;;1.50;;
75645;SDS011;64237;52.438;13.240;2023-06-04T02:07:34;3.60;;;1.10;;
75645;SDS011;64237;52.438;13.240;2023-06-04T02:10:00;5.95;;;2.10;;
75645;SDS011;64237;52.438;13.240;2023-06-04T02:12:25;4.10;;;1.70;;
75645;SDS011;64237;52.438;13.240;2023-06-04T02:14:51;3.55;;;1.20;;
75645;SDS011;64237;52.438;13.240;2023-06-04T02:17:16;7.15;;;1.40;;
75645;SDS011;64237;52.438;13.240;2023-06-04T02:19:42;3.55;;;1.30;;
75645;SDS011;64237;52.438;13.240;2023-06-04T02:22:16;4.28;;;1.30;;
75645;SDS011;64237;52.438;13.240;2023-06-04T02:24:42;4.18;;;1.30;;
75645;SDS011;64237;52.438;13.240;2023-06-04T02:27:08;4.63;;;1.80;;
75645;SDS011;64237;52.438;13.240;2023-06-04T02:29:34;5.05;;;1.30;;
75645;SDS011;64237;52.438;13.240;2023-06-04T02:32:00;3.13;;;1.30;;
75645;SDS011;64237;52.438;13.240;2023-06-04T02:34:26;5.30;;;1.30;;
75645;SDS011;64237;52.438;13.240;2023-06-04T02:36:51;3.28;;;1.27;;
75645;SDS011;64237;52.438;13.240;2023-06-04T02:39:17;3.58;;;1.20;;
75645;SDS011;64237;52.438;13.240;2023-06-04T02:41:44;1.60;;;0.88;;
75645;SDS011;64237;52.438;13.240;2023-06-04T02:44:12;4.60;;;1.50;;
75645;SDS011;64237;52.438;13.240;2023-06-04T02:46:40;4.20;;;1.20;;
75645;SDS011;64237;52.438;13.240;2023-06-04T02:49:06;4.53;;;1.50;;
75645;SDS011;64237;52.438;13.240;2023-06-04T02:51:31;5.10;;;1.73;;
75645;SDS011;64237;52.438;13.240;2023-06-04T02:53:57;5.40;;;1.50;;
75645;SDS011;64237;52.438;13.240;2023-06-04T02:56:23;3.63;;;1.15;;
75645;SDS011;64237;52.438;13.240;2023-06-04T02:58:51;2.75;;;1.30;;
75645;SDS011;64237;52.438;13.240;2023-06-04T03:01:18;3.95;;;1.23;;
75645;SDS011;64237;52.438;13.240;2023-06-04T03:03:46;5.15;;;1.40;;
75645;SDS011;64237;52.438;13.240;2023-06-04T03:06:11;3.00;;;1.15;;
75645;SDS011;64237;52.438;13.240;2023-06-04T03:08:39;2.85;;;1.20;;
75645;SDS011;64237;52.438;13.240;2023-06-04T03:11:04;4.38;;;1.52;;
75645;SDS011;64237;52.438;13.240;2023-06-04T03:13:30;4.45;;;1.30;;
75645;SDS011;64237;52.438;13.240;2023-06-04T03:15:55;2.67;;;1.13;;
75645;SDS011;64237;52.438;13.240;2023-06-04T03:18:21;3.60;;;1.50;;
75645;SDS011;64237;52.438;13.240;2023-06-04T03:20:47;3.85;;;1.30;;
75645;SDS011;64237;52.438;13.240;2023-06-04T03:23:13;2.47;;;1.27;;
75645;SDS011;64237;52.438;13.240;2023-06-04T03:25:38;2.35;;;1.13;;
75645;SDS011;64237;52.438;13.240;2023-06-04T03:28:04;3.83;;;1.23;;
75645;SDS011;64237;52.438;13.240;2023-06-04T03:30:29;2.78;;;1.40;;
75645;SDS011;64237;52.438;13.240;2023-06-04T03:32:55;3.30;;;1.30;;
75645;SDS011;64237;52.438;13.240;2023-06-04T03:35:20;4.30;;;1.20;;
75645;SDS011;64237;52.438;13.240;2023-06-04T03:37:45;5.50;;;1.25;;
75645;SDS011;64237;52.438;13.240;2023-06-04T03:40:11;3.45;;;1.05;;
75645;SDS011;64237;52.438;13.240;2023-06-04T03:42:38;3.60;;;1.20;;
75645;SDS011;64237;52.438;13.240;2023-06-04T03:45:03;2.92;;;1.23;;
75645;SDS011;64237;52.438;13.240;2023-06-04T03:47:29;3.95;;;1.50;;
75645;SDS011;64237;52.438;13.240;2023-06-04T03:49:54;4.37;;;1.43;;
75645;SDS011;64237;52.438;13.240;2023-06-04T03:52:19;3.10;;;1.23;;
75645;SDS011;64237;52.438;13.240;2023-06-04T03:54:45;3.60;;;1.33;;
75645;SDS011;64237;52.438;13.240;2023-06-04T03:57:12;4.03;;;1.60;;
75645;SDS011;64237;52.438;13.240;2023-06-04T03:59:38;3.63;;;1.10;;
75645;SDS011;64237;52.438;13.240;2023-06-04T04:02:03;2.15;;;1.00;;
75645;SDS011;64237;52.438;13.240;2023-06-04T04:04:30;3.47;;;1.25;;
75645;SDS011;64237;52.438;13.240;2023-06-04T04:06:55;4.57;;;1.20;;
75645;SDS011;64237;52.438;13.240;2023-06-04T04:09:20;3.15;;;1.10;;
75645;SDS011;64237;52.438;13.240;2023-06-04T04:11:46;3.97;;;1.50;;
75645;SDS011;64237;52.438;13.240;2023-06-04T04:14:11;4.20;;;1.17;;
75645;SDS011;64237;52.438;13.240;2023-06-04T04:16:37;3.35;;;1.10;;
75645;SDS011;64237;52.438;13.240;2023-06-04T04:19:02;1.98;;;1.00;;
75645;SDS011;64237;52.438;13.240;2023-06-04T04:21:27;3.33;;;1.27;;
75645;SDS011;64237;52.438;13.240;2023-06-04T04:23:53;2.58;;;1.27;;
75645;SDS011;64237;52.438;13.240;2023-06-04T04:26:18;3.60;;;1.27;;
75645;SDS011;64237;52.438;13.240;2023-06-04T04:28:44;4.03;;;1.17;;
75645;SDS011;64237;52.438;13.240;2023-06-04T04:31:09;3.10;;;1.05;;
75645;SDS011;64237;52.438;13.240;2023-06-04T04:33:38;3.88;;;1.23;;
75645;SDS011;64237;52.438;13.240;2023-06-04T04:36:06;4.95;;;1.35;;
75645;SDS011;64237;52.438;13.240;2023-06-04T04:38:37;5.00;;;1.40;;
75645;SDS011;64237;52.438;13.240;2023-06-04T04:41:03;3.72;;;1.40;;
75645;SDS011;64237;52.438;13.240;2023-06-04T04:43:32;5.90;;;1.50;;
75645;SDS011;64237;52.438;13.240;2023-06-04T04:45:58;4.13;;;1.38;;
75645;SDS011;64237;52.438;13.240;2023-06-04T04:48:24;3.83;;;1.50;;
75645;SDS011;64237;52.438;13.240;2023-06-04T04:50:51;3.25;;;1.33;;
75645;SDS011;64237;52.438;13.240;2023-06-04T04:53:16;3.40;;;1.40;;
75645;SDS011;64237;52.438;13.240;2023-06-04T04:55:42;3.33;;;1.10;;
75645;SDS011;64237;52.438;13.240;2023-06-04T04:58:07;4.47;;;1.55;;
75645;SDS011;64237;52.438;13.240;2023-06-04T05:00:32;2.47;;;1.20;;
75645;SDS011;64237;52.438;13.240;2023-06-04T05:02:58;3.83;;;1.30;;
75645;SDS011;64237;52.438;13.240;2023-06-04T05:05:23;4.25;;;1.23;;
75645;SDS011;64237;52.438;13.240;2023-06-04T05:07:48;4.23;;;1.37;;
75645;SDS011;64237;52.438;13.240;2023-06-04T05:10:14;5.40;;;1.38;;
75645;SDS011;64237;52.438;13.240;2023-06-04T05:12:40;3.70;;;1.30;;
75645;SDS011;64237;52.438;13.240;2023-06-04T05:15:16;3.17;;;1.15;;
75645;SDS011;64237;52.438;13.240;2023-06-04T05:17:43;3.92;;;1.10;;
75645;SDS011;64237;52.438;13.240;2023-06-04T05:20:09;2.95;;;0.95;;
75645;SDS011;64237;52.438;13.240;2023-06-04T05:22:36;9.27;;;1.40;;
75645;SDS011;64237;52.438;13.240;2023-06-04T05:25:02;3.85;;;1.10;;
75645;SDS011;64237;52.438;13.240;2023-06-04T05:27:28;3.97;;;1.23;;
75645;SDS011;64237;52.438;13.240;2023-06-04T05:29:53;6.03;;;1.55;;
75645;SDS011;64237;52.438;13.240;2023-06-04T05:32:18;4.45;;;1.42;;
75645;SDS011;64237;52.438;13.240;2023-06-04T05:34:44;3.22;;;1.20;;
75645;SDS011;64237;52.438;13.240;2023-06-04T05:37:12;3.05;;;1.33;;
75645;SDS011;64237;52.438;13.240;2023-06-04T05:39:37;2.97;;;1.20;;
75645;SDS011;64237;52.438;13.240;2023-06-04T05:42:03;5.43;;;1.20;;
75645;SDS011;64237;52.438;13.240;2023-06-04T05:44:28;2.03;;;1.20;;
75645;SDS011;64237;52.438;13.240;2023-06-04T05:46:54;5.55;;;1.00;;
75645;SDS011;64237;52.438;13.240;2023-06-04T05:49:19;3.95;;;1.20;;
75645;SDS011;64237;52.438;13.240;2023-06-04T05:51:45;3.47;;;1.20;;
75645;SDS011;64237;52.438;13.240;2023-06-04T05:54:10;4.65;;;1.40;;
75645;SDS011;64237;52.438;13.240;2023-06-04T05:56:36;3.88;;;1.40;;
75645;SDS011;64237;52.438;13.240;2023-06-04T05:59:01;2.08;;;1.08;;
75645;SDS011;64237;52.438;13.240;2023-06-04T06:01:27;2.28;;;1.10;;
75645;SDS011;64237;52.438;13.240;2023-06-04T06:03:53;2.03;;;1.13;;
75645;SDS011;64237;52.438;13.240;2023-06-04T06:06:19;2.28;;;1.08;;
75645;SDS011;64237;52.438;13.240;2023-06-04T06:08:45;2.15;;;0.90;;
75645;SDS011;64237;52.438;13.240;2023-06-04T06:11:11;2.05;;;1.00;;
75645;SDS011;64237;52.438;13.240;2023-06-04T06:13:37;3.20;;;1.05;;
75645;SDS011;64237;52.438;13.240;2023-06-04T06:16:02;2.67;;;0.90;;
75645;SDS011;64237;52.438;13.240;2023-06-04T06:18:28;3.42;;;0.90;;
75645;SDS011;64237;52.438;13.240;2023-06-04T06:20:53;3.47;;;1.02;;
75645;SDS011;64237;52.438;13.240;2023-06-04T06:23:19;2.70;;;0.80;;
75645;SDS011;64237;52.438;13.240;2023-06-04T06:25:46;2.53;;;1.02;;
75645;SDS011;64237;52.438;13.240;2023-06-04T06:28:20;2.28;;;0.90;;
75645;SDS011;64237;52.438;13.240;2023-06-04T06:30:45;1.67;;;0.90;;
75645;SDS011;64237;52.438;13.240;2023-06-04T06:33:11;2.60;;;1.00;;
75645;SDS011;64237;52.438;13.240;2023-06-04T06:35:37;3.25;;;1.00;;
75645;SDS011;64237;52.438;13.240;2023-06-04T06:38:03;3.00;;;0.80;;
75645;SDS011;64237;52.438;13.240;2023-06-04T06:40:28;2.47;;;0.80;;
75645;SDS011;64237;52.438;13.240;2023-06-04T06:42:55;2.20;;;0.85;;
75645;SDS011;64237;52.438;13.240;2023-06-04T06:45:20;3.75;;;1.00;;
75645;SDS011;64237;52.438;13.240;2023-06-04T06:47:46;3.33;;;1.00;;
75645;SDS011;64237;52.438;13.240;2023-06-04T06:50:11;1.85;;;0.80;;
75645;SDS011;64237;52.438;13.240;2023-06-04T06:52:37;2.35;;;0.85;;
75645;SDS011;64237;52.438;13.240;2023-06-04T06:55:03;3.80;;;1.45;;
75645;SDS011;64237;52.438;13.240;2023-06-04T06:57:29;7.07;;;1.08;;
75645;SDS011;64237;52.438;13.240;2023-06-04T06:59:55;4.28;;;0.85;;
75645;SDS011;64237;52.438;13.240;2023-06-04T07:02:21;4.25;;;0.88;;
75645;SDS011;64237;52.438;13.240;2023-06-04T07:04:46;2.75;;;0.73;;
75645;SDS011;64237;52.438;13.240;2023-06-04T07:07:12;3.03;;;0.90;;
75645;SDS011;64237;52.438;13.240;2023-06-04T07:09:37;2.92;;;0.77;;
75645;SDS011;64237;52.438;13.240;2023-06-04T07:12:03;3.97;;;0.82;;
75645;SDS011;64237;52.438;13.240;2023-06-04T07:14:28;2.05;;;0.60;;
75645;SDS011;64237;52.438;13.240;2023-06-04T07:16:54;4.07;;;0.90;;
75645;SDS011;64237;52.438;13.240;2023-06-04T07:19:19;1.20;;;0.70;;
75645;SDS011;64237;52.438;13.240;2023-06-04T07:21:44;3.17;;;0.77;;
75645;SDS011;64237;52.438;13.240;2023-06-04T07:24:10;3.10;;;0.80;;
75645;SDS011;64237;52.438;13.240;2023-06-04T07:26:35;5.03;;;0.70;;
75645;SDS011;64237;52.438;13.240;2023-06-04T07:29:01;1.83;;;0.70;;
75645;SDS011;64237;52.438;13.240;2023-06-04T07:31:27;2.97;;;0.90;;
75645;SDS011;64237;52.438;13.240;2023-06-04T07:33:52;1.63;;;0.70;;
75645;SDS011;64237;52.438;13.240;2023-06-04T07:36:18;5.15;;;1.15;;
75645;SDS011;64237;52.438;13.240;2023-06-04T07:38:43;2.95;;;0.90;;
75645;SDS011;64237;52.438;13.240;2023-06-04T07:41:09;2.55;;;0.88;;
75645;SDS011;64237;52.438;13.240;2023-06-04T07:43:35;2.70;;;0.88;;
75645;SDS011;64237;52.438;13.240;2023-06-04T07:46:01;1.23;;;0.63;;
75645;SDS011;64237;52.438;13.240;2023-06-04T07:48:30;4.10;;;0.98;;
75645;SDS011;64237;52.438;13.240;2023-06-04T07:51:01;2.28;;;1.20;;
75645;SDS011;64237;52.438;13.240;2023-06-04T07:53:29;2.13;;;0.80;;
75645;SDS011;64237;52.438;13.240;2023-06-04T07:55:55;1.65;;;0.77;;
75645;SDS011;64237;52.438;13.240;2023-06-04T07:58:22;1.67;;;0.90;;
75645;SDS011;64237;52.438;13.240;2023-06-04T08:00:47;2.15;;;0.60;;
75645;SDS011;64237;52.438;13.240;2023-06-04T08:03:13;4.57;;;0.80;;
75645;SDS011;64237;52.438;13.240;2023-06-04T08:05:40;1.17;;;0.73;;
75645;SDS011;64237;52.438;13.240;2023-06-04T08:08:05;1.08;;;0.60;;
75645;SDS011;64237;52.438;13.240;2023-06-04T08:10:31;1.35;;;0.70;;
75645;SDS011;64237;52.438;13.240;2023-06-04T08:12:56;3.92;;;1.05;;
75645;SDS011;64237;52.438;13.240;2023-06-04T08:15:22;2.50;;;0.70;;
75645;SDS011;64237;52.438;13.240;2023-06-04T08:17:47;5.25;;;1.98;;
75645;SDS011;64237;52.438;13.240;2023-06-04T08:20:13;1.10;;;0.50;;
75645;SDS011;64237;52.438;13.240;2023-06-04T08:22:38;1.38;;;0.65;;
75645;SDS011;64237;52.438;13.240;2023-06-04T08:25:04;3.05;;;0.80;;
75645;SDS011;64237;52.438;13.240;2023-06-04T08:27:30;5.43;;;0.98;;
75645;SDS011;64237;52.438;13.240;2023-06-04T08:29:56;0.65;;;0.55;;
75645;SDS011;64237;52.438;13.240;2023-06-04T08:32:22;2.75;;;0.70;;
75645;SDS011;64237;52.438;13.240;2023-06-04T08:34:48;1.67;;;0.70;;
75645;SDS011;64237;52.438;13.240;2023-06-04T08:37:13;2.95;;;0.80;;
75645;SDS011;64237;52.438;13.240;2023-06-04T08:39:38;1.30;;;0.82;;
75645;SDS011;64237;52.438;13.240;2023-06-04T08:42:04;5.30;;;1.17;;
75645;SDS011;64237;52.438;13.240;2023-06-04T08:44:34;2.88;;;0.73;;
75645;SDS011;64237;52.438;13.240;2023-06-04T08:47:03;4.38;;;1.10;;
75645;SDS011;64237;52.438;13.240;2023-06-04T08:49:36;1.27;;;0.77;;
75645;SDS011;64237;52.438;13.240;2023-06-04T08:52:06;4.55;;;0.82;;
75645;SDS011;64237;52.438;13.240;2023-06-04T08:54:32;3.72;;;0.90;;
75645;SDS011;64237;52.438;13.240;2023-06-04T08:56:58;3.17;;;0.68;;
75645;SDS011;64237;52.438;13.240;2023-06-04T08:59:26;4.57;;;1.00;;
75645;SDS011;64237;52.438;13.240;2023-06-04T09:01:53;1.95;;;0.90;;
75645;SDS011;64237;52.438;13.240;2023-06-04T09:04:19;1.83;;;1.00;;
75645;SDS011;64237;52.438;13.240;2023-06-04T09:06:45;2.22;;;0.90;;
75645;SDS011;64237;52.438;13.240;2023-06-04T09:09:12;2.10;;;1.00;;
75645;SDS011;64237;52.438;13.240;2023-06-04T09:14:20;3.30;;;0.90;;
75645;SDS011;64237;52.438;13.240;2023-06-04T09:16:52;4.38;;;0.90;;
75645;SDS011;64237;52.438;13.240;2023-06-04T09:19:20;1.55;;;0.70;;
75645;SDS011;64237;52.438;13.240;2023-06-04T09:21:55;3.85;;;0.77;;
75645;SDS011;64237;52.438;13.240;2023-06-04T09:24:39;1.35;;;0.70;;
75645;SDS011;64237;52.438;13.240;2023-06-04T09:27:15;2.50;;;0.80;;
75645;SDS011;64237;52.438;13.240;2023-06-04T09:29:48;2.15;;;0.90;;
75645;SDS011;64237;52.438;13.240;2023-06-04T09:32:24;3.88;;;0.80;;
75645;SDS011;64237;52.438;13.240;2023-06-04T09:34:52;1.90;;;0.73;;
75645;SDS011;64237;52.438;13.240;2023-06-04T09:37:18;2.63;;;0.70;;
75645;SDS011;64237;52.438;13.240;2023-06-04T09:39:53;2.33;;;0.80;;
75645;SDS011;64237;52.438;13.240;2023-06-04T09:42:19;4.05;;;0.80;;
75645;SDS011;64237;52.438;13.240;2023-06-04T09:44:45;2.28;;;0.80;;
75645;SDS011;64237;52.438;13.240;2023-06-04T09:47:11;2.92;;;1.08;;
75645;SDS011;64237;52.438;13.240;2023-06-04T09:49:42;2.47;;;0.70;;
75645;SDS011;64237;52.438;13.240;2023-06-04T09:52:09;2.67;;;0.77;;
75645;SDS011;64237;52.438;13.240;2023-06-04T09:54:38;4.82;;;1.00;;
75645;SDS011;64237;52.438;13.240;2023-06-04T09:57:16;4.05;;;0.88;;
75645;SDS011;64237;52.438;13.240;2023-06-04T09:59:46;2.65;;;0.70;;
75645;SDS011;64237;52.438;13.240;2023-06-04T10:02:14;2.78;;;0.90;;
75645;SDS011;64237;52.438;13.240;2023-06-04T10:04:44;1.95;;;1.05;;
75645;SDS011;64237;52.438;13.240;2023-06-04T10:07:15;4.60;;;1.00;;
75645;SDS011;64237;52.438;13.240;2023-06-04T10:09:42;3.75;;;0.90;;
75645;SDS011;64237;52.438;13.240;2023-06-04T10:12:11;1.85;;;0.80;;
75645;SDS011;64237;52.438;13.240;2023-06-04T10:15:02;3.03;;;0.85;;
75645;SDS011;64237;52.438;13.240;2023-06-04T10:17:35;1.48;;;0.75;;
75645;SDS011;64237;52.438;13.240;2023-06-04T10:20:01;2.00;;;1.08;;
75645;SDS011;64237;52.438;13.240;2023-06-04T10:22:30;1.92;;;0.90;;
75645;SDS011;64237;52.438;13.240;2023-06-04T10:24:57;1.83;;;0.80;;
75645;SDS011;64237;52.438;13.240;2023-06-04T10:27:23;3.80;;;0.93;;
75645;SDS011;64237;52.438;13.240;2023-06-04T10:29:49;1.10;;;0.80;;
75645;SDS011;64237;52.438;13.240;2023-06-04T10:32:15;2.30;;;0.90;;
75645;SDS011;64237;52.438;13.240;2023-06-04T10:34:42;1.48;;;0.85;;
75645;SDS011;64237;52.438;13.240;2023-06-04T10:37:18;3.50;;;1.08;;
75645;SDS011;64237;52.438;13.240;2023-06-04T10:39:49;2.53;;;0.90;;
75645;SDS011;64237;52.438;13.240;2023-06-04T10:42:19;2.97;;;1.08;;
75645;SDS011;64237;52.438;13.240;2023-06-04T10:44:46;2.10;;;0.90;;
75645;SDS011;64237;52.438;13.240;2023-06-04T10:47:22;3.85;;;1.10;;
75645;SDS011;64237;52.438;13.240;2023-06-04T10:49:52;1.98;;;0.90;;
75645;SDS011;64237;52.438;13.240;2023-06-04T10:52:19;1.35;;;0.70;;
75645;SDS011;64237;52.438;13.240;2023-06-04T10:54:45;3.13;;;1.05;;
75645;SDS011;64237;52.438;13.240;2023-06-04T10:57:17;3.70;;;1.00;;
75645;SDS011;64237;52.438;13.240;2023-06-04T10:59:55;2.63;;;1.00;;
75645;SDS011;64237;52.438;13.240;2023-06-04T11:02:22;5.75;;;1.02;;
75645;SDS011;64237;52.438;13.240;2023-06-04T11:04:57;2.67;;;1.13;;
75645;SDS011;64237;52.438;13.240;2023-06-04T11:07:26;5.47;;;1.13;;
75645;SDS011;64237;52.438;13.240;2023-06-04T11:09:52;2.72;;;1.08;;
75645;SDS011;64237;52.438;13.240;2023-06-04T11:12:18;3.05;;;1.00;;
75645;SDS011;64237;52.438;13.240;2023-06-04T11:14:56;1.55;;;0.77;;
75645;SDS011;64237;52.438;13.240;2023-06-04T11:17:22;2.30;;;1.10;;
75645;SDS011;64237;52.438;13.240;2023-06-04T11:19:47;2.28;;;0.95;;
75645;SDS011;64237;52.438;13.240;2023-06-04T11:22:13;2.80;;;0.90;;
75645;SDS011;64237;52.438;13.240;2023-06-04T11:24:40;3.33;;;1.30;;
75645;SDS011;64237;52.438;13.240;2023-06-04T11:27:05;4.15;;;0.90;;
75645;SDS011;64237;52.438;13.240;2023-06-04T11:29:31;3.80;;;1.00;;
75645;SDS011;64237;52.438;13.240;2023-06-04T11:31:57;2.03;;;1.00;;
75645;SDS011;64237;52.438;13.240;2023-06-04T11:34:26;2.50;;;0.90;;
75645;SDS011;64237;52.438;13.240;2023-06-04T11:36:52;3.28;;;0.95;;
75645;SDS011;64237;52.438;13.240;2023-06-04T11:39:18;2.30;;;1.00;;
75645;SDS011;64237;52.438;13.240;2023-06-04T11:41:44;3.70;;;1.20;;
75645;SDS011;64237;52.438;13.240;2023-06-04T11:44:11;2.80;;;1.00;;
75645;SDS011;64237;52.438;13.240;2023-06-04T11:46:40;2.45;;;0.90;;
75645;SDS011;64237;52.438;13.240;2023-06-04T11:49:10;2.58;;;1.02;;
75645;SDS011;64237;52.438;13.240;2023-06-04T11:51:44;3.75;;;1.13;;
75645;SDS011;64237;52.438;13.240;2023-06-04T11:54:14;3.88;;;1.13;;
75645;SDS011;64237;52.438;13.240;2023-06-04T11:56:41;4.32;;;0.93;;
75645;SDS011;64237;52.438;13.240;2023-06-04T11:59:09;4.97;;;1.17;;
75645;SDS011;64237;52.438;13.240;2023-06-04T12:01:38;4.32;;;1.13;;
75645;SDS011;64237;52.438;13.240;2023-06-04T12:04:14;1.95;;;0.93;;
75645;SDS011;64237;52.438;13.240;2023-06-04T12:06:54;1.55;;;0.90;;
75645;SDS011;64237;52.438;13.240;2023-06-04T12:09:24;4.38;;;0.93;;
75645;SDS011;64237;52.438;13.240;2023-06-04T12:11:57;2.20;;;0.95;;
75645;SDS011;64237;52.438;13.240;2023-06-04T12:14:23;4.28;;;1.10;;
75645;SDS011;64237;52.438;13.240;2023-06-04T12:16:58;2.83;;;1.00;;
75645;SDS011;64237;52.438;13.240;2023-06-04T12:19:44;2.38;;;0.85;;
75645;SDS011;64237;52.438;13.240;2023-06-04T12:22:12;1.85;;;0.90;;
75645;SDS011;64237;52.438;13.240;2023-06-04T12:24:50;4.00;;;1.10;;
75645;SDS011;64237;52.438;13.240;2023-06-04T12:27:27;1.88;;;0.80;;
75645;SDS011;64237;52.438;13.240;2023-06-04T12:30:03;1.92;;;0.90;;
75645;SDS011;64237;52.438;13.240;2023-06-04T12:32:35;1.98;;;0.80;;
75645;SDS011;64237;52.438;13.240;2023-06-04T12:35:01;4.32;;;1.10;;
75645;SDS011;64237;52.438;13.240;2023-06-04T12:37:26;3.63;;;1.00;;
75645;SDS011;64237;52.438;13.240;2023-06-04T12:39:52;2.70;;;1.00;;
75645;SDS011;64237;52.438;13.240;2023-06-04T12:42:19;1.65;;;0.90;;
75645;SDS011;64237;52.438;13.240;2023-06-04T12:44:46;3.30;;;0.93;;
75645;SDS011;64237;52.438;13.240;2023-06-04T12:47:12;1.63;;;0.90;;
75645;SDS011;64237;52.438;13.240;2023-06-04T12:49:37;3.15;;;1.00;;
75645;SDS011;64237;52.438;13.240;2023-06-04T12:52:03;2.38;;;0.90;;
75645;SDS011;64237;52.438;13.240;2023-06-04T12:54:29;3.50;;;0.90;;
75645;SDS011;64237;52.438;13.240;2023-06-04T12:56:55;2.10;;;0.98;;
75645;SDS011;64237;52.438;13.240;2023-06-04T12:59:22;1.48;;;0.90;;
75645;SDS011;64237;52.438;13.240;2023-06-04T13:01:49;1.40;;;0.70;;
75645;SDS011;64237;52.438;13.240;2023-06-04T13:04:14;3.28;;;0.80;;
75645;SDS011;64237;52.438;13.240;2023-06-04T13:06:40;4.55;;;0.93;;
75645;SDS011;64237;52.438;13.240;2023-06-04T13:09:06;2.53;;;0.95;;
75645;SDS011;64237;52.438;13.240;2023-06-04T13:11:40;2.00;;;0.90;;
75645;SDS011;64237;52.438;13.240;2023-06-04T13:14:09;2.53;;;0.98;;
75645;SDS011;64237;52.438;13.240;2023-06-04T13:16:35;3.60;;;1.30;;
75645;SDS011;64237;52.438;13.240;2023-06-04T13:19:01;4.15;;;1.10;;
75645;SDS011;64237;52.438;13.240;2023-06-04T13:21:27;3.15;;;1.30;;
75645;SDS011;64237;52.438;13.240;2023-06-04T13:23:52;3.42;;;1.02;;
75645;SDS011;64237;52.438;13.240;2023-06-04T13:26:18;3.60;;;1.20;;
75645;SDS011;64237;52.438;13.240;2023-06-04T13:28:43;2.95;;;1.00;;
75645;SDS011;64237;52.438;13.240;2023-06-04T13:31:09;3.97;;;0.88;;
75645;SDS011;64237;52.438;13.240;2023-06-04T13:33:34;2.88;;;0.80;;
75645;SDS011;64237;52.438;13.240;2023-06-04T13:36:01;1.60;;;0.90;;
75645;SDS011;64237;52.438;13.240;2023-06-04T13:38:27;2.40;;;1.00;;
75645;SDS011;64237;52.438;13.240;2023-06-04T13:40:53;2.42;;;1.27;;
75645;SDS011;64237;52.438;13.240;2023-06-04T13:43:18;4.18;;;1.00;;
75645;SDS011;64237;52.438;13.240;2023-06-04T13:45:44;4.68;;;1.30;;
75645;SDS011;64237;52.438;13.240;2023-06-04T13:48:11;2.15;;;0.93;;
75645;SDS011;64237;52.438;13.240;2023-06-04T13:50:36;2.70;;;1.00;;
75645;SDS011;64237;52.438;13.240;2023-06-04T13:53:02;4.23;;;1.00;;
75645;SDS011;64237;52.438;13.240;2023-06-04T13:55:27;4.80;;;1.00;;
75645;SDS011;64237;52.438;13.240;2023-06-04T13:57:52;3.55;;;1.08;;
75645;SDS011;64237;52.438;13.240;2023-06-04T14:00:18;5.17;;;1.30;;
75645;SDS011;64237;52.438;13.240;2023-06-04T14:02:45;4.03;;;1.10;;
75645;SDS011;64237;52.438;13.240;2023-06-04T14:05:10;3.40;;;1.10;;
75645;SDS011;64237;52.438;13.240;2023-06-04T14:07:36;2.83;;;0.98;;
75645;SDS011;64237;52.438;13.240;2023-06-04T14:10:01;1.73;;;0.90;;
75645;SDS011;64237;52.438;13.240;2023-06-04T14:12:26;3.22;;;0.90;;
75645;SDS011;64237;52.438;13.240;2023-06-04T14:14:52;4.57;;;1.10;;
75645;SDS011;64237;52.438;13.240;2023-06-04T14:17:17;2.47;;;0.77;;
75645;SDS011;64237;52.438;13.240;2023-06-04T14:19:42;2.75;;;1.20;;
75645;SDS011;64237;52.438;13.240;2023-06-04T14:22:09;2.40;;;1.00;;
75645;SDS011;64237;52.438;13.240;2023-06-04T14:24:35;3.25;;;1.20;;
75645;SDS011;64237;52.438;13.240;2023-06-04T14:27:01;2.47;;;1.10;;
75645;SDS011;64237;52.438;13.240;2023-06-04T14:29:26;2.25;;;1.10;;
75645;SDS011;64237;52.438;13.240;2023-06-04T14:31:51;5.68;;;1.27;;
75645;SDS011;64237;52.438;13.240;2023-06-04T14:34:17;8.15;;;1.25;;
75645;SDS011;64237;52.438;13.240;2023-06-04T14:36:42;4.28;;;1.02;;